Tropical Cyclones
[Index]
Main Index Home Page Stock Weather Photos Extreme Storms Discussion Storm News and Storm Chasing Reports Tropical Cyclones / Hurricanes / Typhoons Weather Data and Links Wild Fires / Bushfires Weather Observation Techniques Weather Picture Catalogue Tornado Pictures and Reports Stock Video Footage and DVDs for sale
Season 1948-1949 Tropical Cyclone 194912 Track Map
Season 1948-1949 Summaries: [BoM-AU] [JTWC-AU] [JTWC-SIO] [JTWC-SPAC] [JTWC-SH]
<<- Previous TC | JTWC 1948-1949 Season | Next TC ->>

click for intensity scale information  Lat/long Grid: Show Hide

 Date Labels: Show Hide

Joint Typhoon Warning Centre Cyclone Data

Name: 194912
Number: 95 / 4912

07 Feb 1949 00:00 UTC to 16 Feb 1949 18:00 UTC

    date/time    lat    long     hPa   cat  kts
1949-02-07 00   13.1   154.9                              
1949-02-07 06   13.2   154.0                              
1949-02-07 12   13.4   153.3                              
1949-02-07 18   13.7   152.6                              
1949-02-08 00   14.1   151.9                              
1949-02-08 06   14.4   151.3                              
1949-02-08 12   14.8   150.7                              
1949-02-08 18   15.1   149.9                              
1949-02-09 00   15.3   149.2                              
1949-02-09 06   15.5   148.4                              
1949-02-09 12   15.4   147.6                              
1949-02-09 18   15.2   146.6                              
1949-02-10 00   15.0   145.9                              
1949-02-10 06   14.6   145.6                              
1949-02-10 12   14.4   145.2                              
1949-02-10 18   14.1   144.9                              
1949-02-11 00   14.1   144.5                              
1949-02-11 06   14.3   144.0                              
1949-02-11 12   14.7   143.4                              
1949-02-11 18   15.0   142.9                              
1949-02-12 00   15.3   142.4                              
1949-02-12 06   15.4   141.9                              
1949-02-12 12   15.5   141.3                              
1949-02-12 18   15.6   140.8                              
1949-02-13 00   15.9   140.2                              
1949-02-13 06   16.5   140.0                              
1949-02-13 12   17.2   140.1                              
1949-02-13 18   17.8   140.3                              
1949-02-14 00   18.1   140.9                              
1949-02-14 06   18.2   141.8                              
1949-02-14 12   18.2   142.6                              
1949-02-14 18   17.7   143.4                              
1949-02-15 00   18.2   144.3                              
1949-02-15 06   19.5   146.4                              
1949-02-15 12   20.7   148.6                              
1949-02-15 18   22.0   150.5                              
1949-02-16 00   23.2   152.3                              
1949-02-16 06   24.7   154.5                              
1949-02-16 12   26.4   157.1                              
1949-02-16 18   28.2   160.4                              
Winds are 1-min average.

Tropical cyclone tracks developed by Michael Bath using data from the Joint Typhoon Warning Centre Best Tracks and Google Maps.


[Australian Severe Weather index] [Copyright Notice] [Email Contacts] [Search This Site] [Privacy Policy]
Document: tropical_cyclone_194912.htm Updated: 18 September 2016